.
WxDataArchive / Data Records for 2007-11-03
2007-11-02 November 2007 2007-11-04

Data Records for Saturday, 03 November 2007

Time	Temp	Chill	HIndex	Humid	Dewpt	 Wind 	HiWind	WindDir	Rain 	Barom 
-----	----	-----	------	-----	-----	------	------	-------	-----	----- 
00:00	33.2	33.2	33.2	91	30.9	0	0	---	0.00	30.144 
00:05	33.1	33.1	33.1	91	30.8	0	0	---	0.00	30.142 
00:10	32.9	32.9	32.9	91	30.6	0	0	---	0.00	30.139 
00:15	32.8	32.8	32.8	91	30.5	0	0	---	0.00	30.142 
00:20	32.7	32.7	32.7	91	30.4	0	0	---	0.00	30.141 
00:25	32.7	32.7	32.7	91	30.4	0	0	---	0.00	30.139 
00:30	32.5	32.5	32.5	91	30.2	0	0	---	0.00	30.140 
00:35	32.5	32.5	32.5	91	30.2	0	0	---	0.00	30.138 
00:40	32.4	32.4	32.4	91	30.1	0	0	---	0.00	30.140 
00:45	32.4	32.4	32.4	92	30.3	0	0	---	0.00	30.139 
00:50	32.4	32.4	32.4	92	30.3	0	0	---	0.00	30.141 
00:55	32.4	32.4	32.4	92	30.3	0	0	---	0.00	30.141 
01:00	32.4	32.4	32.4	92	30.3	0	0	---	0.00	30.140 
01:05	32.2	32.2	32.2	92	30.1	0	0	---	0.00	30.137 
01:10	32.2	32.2	32.2	92	30.1	0	0	---	0.00	30.139 
01:15	32.2	32.2	32.2	92	30.1	0	0	---	0.00	30.137 
01:20	32.2	32.2	32.2	92	30.1	0	0	---	0.00	30.136 
01:25	32.2	32.2	32.2	92	30.1	0	0	---	0.00	30.136 
01:30	32.1	32.1	32.1	92	30.0	0	0	---	0.00	30.136 
01:35	31.9	31.9	31.9	92	29.8	0	0	---	0.00	30.136 
01:40	31.9	31.9	31.9	92	29.8	0	0	---	0.00	30.137 
01:45	31.8	31.8	31.8	92	29.7	0	0	---	0.00	30.137 
01:50	31.8	31.8	31.8	92	29.7	0	0	---	0.00	30.136 
01:55	31.6	31.6	31.6	93	29.8	0	0	---	0.00	30.135 
02:00	31.6	31.6	31.6	93	29.8	0	0	---	0.00	30.134 
02:05	31.6	31.6	31.6	93	29.8	0	0	---	0.00	30.131 
02:10	31.5	31.5	31.5	93	29.7	0	0	---	0.00	30.130 
02:15	31.5	31.5	31.5	93	29.7	0	0	---	0.00	30.126 
02:20	31.5	31.5	31.5	93	29.7	0	0	---	0.00	30.124 
02:25	31.3	31.3	31.3	93	29.5	0	0	---	0.00	30.122 
02:30	31.3	31.3	31.3	93	29.5	0	0	---	0.00	30.124 
02:35	31.3	31.3	31.3	93	29.5	0	0	---	0.00	30.124 
02:40	31.2	31.2	31.2	93	29.4	0	0	---	0.00	30.123 
02:45	31.2	31.2	31.2	93	29.4	0	0	---	0.00	30.125 
02:50	31.0	31.0	31.0	93	29.2	0	0	---	0.00	30.125 
02:55	31.0	31.0	31.0	93	29.2	0	0	---	0.00	30.123 
03:00	31.0	31.0	31.0	93	29.2	0	0	---	0.00	30.124 
03:05	30.9	30.9	30.9	93	29.1	0	0	---	0.00	30.123 
03:10	30.9	30.9	30.9	93	29.1	0	0	---	0.00	30.123 
03:15	31.0	31.0	31.0	93	29.2	0	0	---	0.00	30.121 
03:20	31.0	31.0	31.0	94	29.5	0	0	---	0.00	30.119 
03:25	31.0	31.0	31.0	94	29.5	0	0	---	0.00	30.118 
03:30	30.9	30.9	30.9	94	29.4	0	0	---	0.00	30.119 
03:35	30.9	30.9	30.9	94	29.4	0	0	---	0.00	30.118 
03:40	30.9	30.9	30.9	94	29.4	0	0	---	0.00	30.116 
03:45	31.2	31.2	31.2	94	29.7	0	0	---	0.00	30.116 
03:50	31.3	31.3	31.3	94	29.8	0	0	---	0.00	30.114 
03:55	31.3	31.3	31.3	94	29.8	0	0	---	0.00	30.113 
04:00	31.6	31.6	31.6	94	30.1	0	0	---	0.00	30.111 
04:05	31.9	31.9	31.9	95	30.6	0	0	---	0.00	30.108 
04:10	32.1	32.1	32.1	95	30.8	0	0	---	0.00	30.107 
04:15	32.4	32.4	32.4	95	31.1	0	0	---	0.00	30.105 
04:20	32.7	32.7	32.7	95	31.4	0	0	---	0.00	30.105 
04:25	32.9	32.9	32.9	95	31.6	0	0	---	0.00	30.104 
04:30	33.1	33.1	33.1	95	31.8	0	0	---	0.00	30.105 
04:35	33.4	33.4	33.4	95	32.1	0	0	---	0.00	30.105 
04:40	33.5	33.5	33.5	95	32.2	0	0	---	0.00	30.105 
04:45	33.7	33.7	33.7	95	32.4	0	0	---	0.00	30.104 
04:50	33.8	33.8	33.8	95	32.5	0	0	---	0.00	30.104 
04:55	34.1	34.1	34.1	95	32.8	0	0	---	0.00	30.104 
05:00	34.3	34.3	34.3	95	33.0	0	0	---	0.00	30.105 
05:05	34.7	34.7	34.7	95	33.4	0	0	---	0.00	30.110 
05:10	34.9	34.9	34.9	95	33.6	0	0	---	0.00	30.109 
05:15	35.0	35.0	35.0	95	33.7	0	0	---	0.00	30.107 
05:20	35.2	35.2	35.2	95	33.9	0	0	---	0.00	30.107 
05:25	35.3	35.3	35.3	95	34.0	0	0	---	0.00	30.107 
05:30	35.6	35.6	35.6	95	34.3	0	0	---	0.00	30.107 
05:35	35.9	35.9	35.9	95	34.6	0	0	---	0.00	30.108 
05:40	36.0	36.0	36.0	95	34.7	0	0	---	0.00	30.107 
05:45	36.2	36.2	36.2	95	34.9	0	0	---	0.00	30.107 
05:50	36.2	36.2	36.2	95	34.9	0	0	---	0.00	30.106 
05:55	36.3	36.3	36.3	95	35.0	0	0	---	0.00	30.106 
06:00	36.5	36.5	36.5	95	35.2	0	0	---	0.00	30.105 
06:05	36.5	36.5	36.5	95	35.2	0	0	---	0.00	30.111 
06:10	36.6	36.6	36.6	95	35.3	0	0	---	0.00	30.110 
06:15	36.9	36.9	36.9	95	35.6	0	0	---	0.00	30.110 
06:20	37.2	37.2	37.2	95	35.9	0	0	---	0.00	30.110 
06:25	37.5	37.5	37.5	94	35.9	0	0	---	0.00	30.109 
06:30	37.8	37.8	37.8	93	36.0	0	0	---	0.00	30.108 
06:35	38.0	38.0	38.0	92	35.9	0	0	---	0.00	30.107 
06:40	38.2	38.2	38.2	91	35.8	0	0	---	0.00	30.106 
06:45	38.3	38.3	38.3	90	35.6	0	0	---	0.00	30.108 
06:50	38.3	38.3	38.3	89	35.3	0	0	---	0.00	30.107 
06:55	38.5	38.5	38.5	89	35.5	0	0	---	0.00	30.108 
07:00	38.5	38.5	38.5	88	35.3	0	0	---	0.00	30.107 
07:05	38.6	38.6	38.6	86	34.8	0	1	248	0.00	30.110 
07:10	38.9	38.9	38.9	83	34.2	0	1	248	0.00	30.109 
07:15	39.1	39.1	39.1	81	33.8	0	0	---	0.00	30.110 
07:20	39.1	39.1	39.1	80	33.5	0	0	---	0.00	30.111 
07:25	38.9	38.9	38.9	80	33.3	0	0	---	0.00	30.110 
07:30	38.6	38.6	38.6	79	32.7	0	0	---	0.00	30.111 
07:35	38.3	38.3	38.3	79	32.4	0	0	---	0.00	30.111 
07:40	38.0	38.0	38.0	79	32.1	0	0	---	0.00	30.114 
07:45	37.9	37.9	37.9	79	32.0	0	1	248	0.00	30.114 
07:50	37.8	37.8	37.8	79	31.9	0	0	---	0.00	30.118 
07:55	37.9	37.9	37.9	80	32.3	0	0	---	0.00	30.124 
08:00	37.9	37.9	37.9	80	32.3	0	0	---	0.00	30.124 
08:05	38.0	38.0	38.0	80	32.4	0	1	248	0.00	30.128 
08:10	38.2	38.2	38.2	80	32.6	0	0	---	0.00	30.126 
08:15	38.5	38.5	38.5	79	32.6	0	1	248	0.00	30.125 
08:20	38.8	38.8	38.8	79	32.9	0	1	248	0.00	30.124 
08:25	39.3	39.3	39.3	79	33.3	0	0	---	0.00	30.124 
08:30	39.9	39.9	39.9	78	33.6	0	1	248	0.00	30.124 
08:35	40.5	40.5	40.5	77	33.9	0	1	248	0.00	30.127 
08:40	41.2	41.2	41.2	76	34.2	0	1	248	0.00	30.124 
08:45	41.9	41.9	41.9	73	33.9	0	1	248	0.00	30.124 
08:50	42.8	42.8	42.8	72	34.4	0	2	248	0.00	30.124 
08:55	43.3	43.3	43.3	69	33.8	0	2	248	0.00	30.124 
09:00	44.1	44.1	44.1	70	35.0	0	1	248	0.00	30.122 
09:05	44.8	44.8	44.8	67	34.5	0	1	248	0.00	30.123 
09:10	45.4	45.4	45.4	67	35.1	0	2	248	0.00	30.121 
09:15	46.0	46.0	46.0	66	35.3	0	2	270	0.00	30.123 
09:20	46.4	46.4	46.4	64	34.9	1	3	338	0.00	30.123 
09:25	47.0	47.0	47.0	65	35.9	0	1	315	0.00	30.120 
09:30	47.3	47.3	47.3	65	36.1	0	2	338	0.00	30.118 
09:35	47.9	47.9	47.9	65	36.7	0	2	338	0.00	30.113 
09:40	48.3	48.3	48.3	63	36.3	0	1	338	0.00	30.115 
09:45	48.8	48.8	48.8	62	36.4	0	2	338	0.00	30.111 
09:50	49.4	49.4	49.4	62	36.9	0	1	338	0.00	30.110 
09:55	49.8	49.8	49.8	60	36.5	0	2	338	0.00	30.111 
10:00	50.4	50.4	50.4	61	37.5	0	1	338	0.00	30.113 
10:05	50.8	50.8	50.8	60	37.4	0	1	338	0.00	30.114 
10:10	51.3	51.3	51.3	58	37.0	0	2	338	0.00	30.113 
10:15	51.7	51.7	51.7	58	37.4	0	2	338	0.00	30.107 
10:20	51.9	51.9	51.9	57	37.1	0	2	338	0.00	30.106 
10:25	52.2	52.2	52.2	58	37.9	0	1	338	0.00	30.108 
10:30	52.6	52.6	52.6	58	38.2	0	1	338	0.00	30.106 
10:35	52.9	52.9	52.9	57	38.1	0	2	338	0.00	30.103 
10:40	53.2	53.2	53.2	56	37.9	0	1	338	0.00	30.103 
10:45	53.5	53.5	53.5	56	38.2	0	2	338	0.00	30.100 
10:50	53.8	53.8	53.8	56	38.5	0	2	338	0.00	30.101 
10:55	53.9	53.9	53.9	54	37.6	0	2	338	0.00	30.101 
11:00	54.2	54.2	54.2	56	38.8	0	1	338	0.00	30.101 
11:05	54.4	54.4	54.4	54	38.1	1	3	292	0.00	30.103 
11:10	54.4	54.4	54.4	52	37.1	1	5	270	0.00	30.104 
11:15	54.4	54.4	54.4	52	37.1	1	2	315	0.00	30.103 
11:20	54.5	54.5	54.5	53	37.7	0	2	315	0.00	30.101 
11:25	54.8	54.8	54.8	51	37.0	1	4	315	0.00	30.100 
11:30	55.0	55.0	55.0	50	36.7	1	2	338	0.00	30.098 
11:35	55.1	55.1	55.1	51	37.3	1	3	315	0.00	30.099 
11:40	55.3	55.3	55.3	49	36.5	1	4	248	0.00	30.096 
11:45	55.3	55.3	55.3	50	37.0	1	2	315	0.00	30.089 
11:50	55.3	55.3	55.3	50	37.0	0	2	315	0.00	30.086 
11:55	55.4	55.4	55.4	47	35.5	1	5	338	0.00	30.086 
12:00	55.3	55.3	55.3	47	35.4	1	4	248	0.00	30.084 
12:05	55.7	55.7	55.7	46	35.2	1	3	315	0.00	30.082 
12:10	55.9	55.9	55.9	46	35.4	1	2	315	0.00	30.080 
12:15	55.7	55.7	55.7	44	34.1	1	3	315	0.00	30.075 
12:20	55.7	55.7	55.7	47	35.8	1	4	315	0.00	30.072 
12:25	56.0	56.0	56.0	44	34.4	1	4	315	0.00	30.070 
12:30	56.3	56.3	56.3	46	35.8	0	2	292	0.00	30.069 
12:35	56.3	56.3	56.3	44	34.7	1	3	315	0.00	30.068 
12:40	56.3	56.3	56.3	42	33.5	1	3	315	0.00	30.068 
12:45	56.3	56.3	56.3	43	34.1	1	4	292	0.00	30.063 
12:50	56.3	56.3	56.3	41	32.9	1	4	292	0.00	30.058 
12:55	56.5	56.5	56.5	41	33.1	1	3	315	0.00	30.057 
13:00	56.5	56.5	56.5	41	33.1	1	4	270	0.00	30.055 
13:05	56.7	56.7	56.7	38	31.4	1	3	292	0.00	30.056 
13:10	56.7	56.7	56.7	38	31.4	1	3	338	0.00	30.055 
13:15	56.6	56.6	56.6	36	30.0	1	4	338	0.00	30.055 
13:20	56.3	56.3	56.3	34	28.3	1	3	270	0.00	30.055 
13:25	56.3	56.3	56.3	36	29.7	1	2	315	0.00	30.053 
13:30	56.5	56.5	56.5	34	28.5	0	2	315	0.00	30.052 
13:35	56.6	56.6	56.6	35	29.3	1	3	315	0.00	30.054 
13:40	56.6	56.6	56.6	37	30.6	1	5	315	0.00	30.052 
13:45	56.7	56.7	56.7	36	30.0	2	5	315	0.00	30.053 
13:50	56.5	56.5	56.5	37	30.5	1	3	270	0.00	30.049 
13:55	56.6	56.6	56.6	37	30.6	1	3	315	0.00	30.048 
14:00	56.7	56.7	56.7	37	30.7	2	4	248	0.00	30.050 
14:05	56.7	56.7	56.7	39	32.0	2	5	248	0.00	30.048 
14:10	56.5	56.5	56.5	38	31.2	1	3	315	0.00	30.044 
14:15	56.5	56.5	56.5	38	31.2	2	5	315	0.00	30.044 
14:20	56.5	56.5	56.5	39	31.8	1	5	315	0.00	30.042 
14:25	56.5	56.5	56.5	39	31.8	1	4	338	0.00	30.040 
14:30	56.3	56.3	56.3	39	31.7	2	5	292	0.00	30.042 
14:35	56.2	56.2	56.2	38	30.9	1	3	292	0.00	30.041 
14:40	56.3	56.3	56.3	39	31.7	1	5	315	0.00	30.040 
14:45	56.5	56.5	56.5	38	31.2	2	8	315	0.00	30.038 
14:50	56.5	56.5	56.5	38	31.2	1	5	315	0.00	30.037 
14:55	56.5	56.5	56.5	38	31.2	1	3	292	0.00	30.036 
15:00	56.3	56.3	56.3	38	31.0	2	5	315	0.00	30.037 
15:05	56.2	56.2	56.2	39	31.6	1	4	315	0.00	30.038 
15:10	56.0	56.0	56.0	39	31.4	2	5	315	0.00	30.038 
15:15	55.9	55.9	55.9	39	31.3	1	4	292	0.00	30.039 
15:20	56.0	56.0	56.0	39	31.4	1	3	292	0.00	30.038 
15:25	56.0	56.0	56.0	38	30.8	1	3	315	0.00	30.040 
15:30	55.9	55.9	55.9	40	31.9	1	4	315	0.00	30.040 
15:35	55.7	55.7	55.7	37	29.8	2	5	315	0.00	30.040 
15:40	55.6	55.6	55.6	38	30.4	2	4	270	0.00	30.041 
15:45	55.6	55.6	55.6	37	29.7	1	2	248	0.00	30.043 
15:50	55.3	55.3	55.3	37	29.5	2	4	338	0.00	30.046 
15:55	55.3	55.3	55.3	38	30.1	1	4	270	0.00	30.044 
16:00	55.3	55.3	55.3	38	30.1	1	3	315	0.00	30.044 
16:05	55.1	55.1	55.1	37	29.3	1	3	315	0.00	30.041 
16:10	55.1	55.1	55.1	37	29.3	1	3	270	0.00	30.042 
16:15	54.8	54.8	54.8	36	28.4	1	4	0	0.00	30.042 
16:20	54.7	54.7	54.7	36	28.3	1	3	315	0.00	30.043 
16:25	54.5	54.5	54.5	37	28.8	1	7	338	0.00	30.046 
16:30	54.2	54.2	54.2	38	29.2	1	4	315	0.00	30.042 
16:35	53.9	53.9	53.9	38	28.9	0	2	315	0.00	30.045 
16:40	53.9	53.9	53.9	39	29.5	1	4	248	0.00	30.049 
16:45	53.9	53.9	53.9	39	29.5	1	4	270	0.00	30.052 
16:50	53.6	53.6	53.6	39	29.3	1	6	292	0.00	30.055 
16:55	53.3	53.3	53.3	39	29.0	1	3	292	0.00	30.054 
17:00	53.2	53.2	53.2	39	28.9	1	3	315	0.00	30.056 
17:05	52.8	52.8	52.8	39	28.5	1	4	292	0.00	30.053 
17:10	52.3	52.3	52.3	41	29.3	1	2	315	0.00	30.053 
17:15	52.2	52.2	52.2	42	29.8	1	3	315	0.00	30.055 
17:20	51.7	51.7	51.7	43	29.9	0	1	315	0.00	30.055 
17:25	51.3	51.3	51.3	44	30.1	0	3	315	0.00	30.055 
17:30	51.0	51.0	51.0	44	29.9	0	4	292	0.00	30.054 
17:35	50.7	50.7	50.7	44	29.6	0	1	292	0.00	30.055 
17:40	50.2	50.2	50.2	45	29.7	0	1	292	0.00	30.057 
17:45	49.8	49.8	49.8	46	29.9	0	1	292	0.00	30.057 
17:50	49.6	49.6	49.6	46	29.7	0	2	292	0.00	30.058 
17:55	49.5	49.5	49.5	46	29.6	0	1	292	0.00	30.059 
18:00	49.2	49.2	49.2	47	29.8	0	1	292	0.00	30.062 
18:05	48.8	48.8	48.8	48	30.0	0	1	292	0.00	30.064 
18:10	48.5	48.5	48.5	48	29.7	0	1	292	0.00	30.062 
18:15	48.3	48.3	48.3	48	29.5	0	1	292	0.00	30.067 
18:20	48.0	48.0	48.0	49	29.8	0	1	292	0.00	30.067 
18:25	47.9	47.9	47.9	48	29.2	0	1	292	0.00	30.069 
18:30	47.6	47.6	47.6	49	29.4	0	1	292	0.00	30.067 
18:35	47.4	47.4	47.4	50	29.7	0	1	292	0.00	30.065 
18:40	47.3	47.3	47.3	50	29.6	0	1	292	0.00	30.066 
18:45	47.0	47.0	47.0	50	29.3	0	1	292	0.00	30.068 
18:50	46.7	46.7	46.7	51	29.5	0	1	292	0.00	30.068 
18:55	46.4	46.4	46.4	51	29.3	0	1	292	0.00	30.066 
19:00	46.1	46.1	46.1	52	29.5	0	0	---	0.00	30.069 
19:05	45.8	45.8	45.8	53	29.7	0	0	---	0.00	30.072 
19:10	45.4	45.4	45.4	53	29.3	0	0	---	0.00	30.075 
19:15	44.9	44.9	44.9	54	29.3	0	0	---	0.00	30.072 
19:20	44.3	44.3	44.3	55	29.2	0	0	---	0.00	30.072 
19:25	43.8	43.8	43.8	58	30.0	0	0	---	0.00	30.067 
19:30	43.1	43.1	43.1	58	29.3	0	0	---	0.00	30.069 
19:35	42.5	42.5	42.5	60	29.6	0	0	---	0.00	30.068 
19:40	41.8	41.8	41.8	62	29.7	0	0	---	0.00	30.066 
19:45	41.2	41.2	41.2	63	29.6	0	0	---	0.00	30.065 
19:50	40.6	40.6	40.6	64	29.4	0	0	---	0.00	30.064 
19:55	40.1	40.1	40.1	65	29.3	0	0	---	0.00	30.064 
20:00	39.5	39.5	39.5	67	29.5	0	0	---	0.00	30.063 
20:05	38.9	38.9	38.9	68	29.3	0	0	---	0.00	30.058 
20:10	38.3	38.3	38.3	70	29.4	0	0	---	0.00	30.057 
20:15	37.9	37.9	37.9	71	29.4	0	0	---	0.00	30.057 
20:20	37.5	37.5	37.5	72	29.3	0	0	---	0.00	30.057 
20:25	37.2	37.2	37.2	73	29.4	0	0	---	0.00	30.057 
20:30	36.9	36.9	36.9	74	29.4	0	0	---	0.00	30.050 
20:35	36.6	36.6	36.6	76	29.8	0	0	---	0.00	30.047 
20:40	36.3	36.3	36.3	76	29.5	0	0	---	0.00	30.048 
20:45	36.0	36.0	36.0	77	29.5	0	0	---	0.00	30.046 
20:50	35.8	35.8	35.8	77	29.3	0	0	---	0.00	30.046 
20:55	35.6	35.6	35.6	78	29.4	0	0	---	0.00	30.047 
21:00	35.5	35.5	35.5	78	29.3	0	0	---	0.00	30.047 
21:05	35.3	35.3	35.3	79	29.4	0	0	---	0.00	30.044 
21:10	35.2	35.2	35.2	79	29.4	0	0	---	0.00	30.045 
21:15	35.0	35.0	35.0	80	29.5	0	0	---	0.00	30.044 
21:20	34.9	34.9	34.9	80	29.4	0	0	---	0.00	30.042 
21:25	34.6	34.6	34.6	81	29.4	0	0	---	0.00	30.041 
21:30	34.6	34.6	34.6	82	29.7	0	0	---	0.00	30.040 
21:35	34.6	34.6	34.6	82	29.7	0	0	---	0.00	30.042 
21:40	34.6	34.6	34.6	82	29.7	0	0	---	0.00	30.042 
21:45	34.6	34.6	34.6	83	30.0	0	0	---	0.00	30.040 
21:50	34.6	34.6	34.6	83	30.0	0	0	---	0.00	30.038 
21:55	34.6	34.6	34.6	83	30.0	0	0	---	0.00	30.033 
22:00	34.6	34.6	34.6	83	30.0	0	0	---	0.00	30.032 
22:05	34.4	34.4	34.4	83	29.8	0	0	---	0.00	30.028 
22:10	34.4	34.4	34.4	84	30.1	0	0	---	0.00	30.030 
22:15	34.3	34.3	34.3	84	30.0	0	0	---	0.00	30.029 
22:20	34.1	34.1	34.1	84	29.8	0	0	---	0.00	30.026 
22:25	34.0	34.0	34.0	84	29.7	0	0	---	0.00	30.025 
22:30	33.8	33.8	33.8	84	29.5	0	0	---	0.00	30.024 
22:35	33.7	33.7	33.7	85	29.7	0	0	---	0.00	30.025 
22:40	33.5	33.5	33.5	85	29.5	0	0	---	0.00	30.024 
22:45	33.4	33.4	33.4	85	29.4	0	0	---	0.00	30.026 
22:50	33.2	33.2	33.2	86	29.5	0	0	---	0.00	30.026 
22:55	33.2	33.2	33.2	87	29.8	0	0	---	0.00	30.026 
23:00	33.4	33.4	33.4	87	30.0	0	0	---	0.00	30.025 
23:05	33.5	33.5	33.5	88	30.3	0	0	---	0.00	30.023 
23:10	33.5	33.5	33.5	88	30.3	0	0	---	0.00	30.023 
23:15	33.7	33.7	33.7	88	30.5	0	0	---	0.00	30.024 
23:20	33.8	33.8	33.8	88	30.6	0	0	---	0.00	30.024 
23:25	34.0	34.0	34.0	88	30.8	0	0	---	0.00	30.025 
23:30	34.3	34.3	34.3	88	31.1	0	0	---	0.00	30.025 
23:35	34.3	34.3	34.3	87	30.8	0	0	---	0.00	30.025 
23:40	34.3	34.3	34.3	86	30.6	0	0	---	0.00	30.024 
23:45	34.3	34.3	34.3	86	30.6	0	0	---	0.00	30.023 
23:50	34.1	34.1	34.1	85	30.1	0	0	---	0.00	30.019 
23:55	34.0	34.0	34.0	85	30.0	0	0	---	0.00	30.013 

CoCoRaHS
IN-AL-39
A2 Web Hosting
Creative Commons License
GoDaddy
Look for:

loaded 2017-10-18 21:58:36 • last modified 2010-11-18 10:43:29
Privacy PolicyDisclaimer
• wx.awcolley.com is powered by PmWiki v.2002016 •
• all content (unless otherwise noted) © 2017 A W Colley